Time;durP1;ratioP1;P1;durP2;ratioP2;P2;SDS_P1;SDS_P2;PMS_P1;PMS_P2;Temp;Humidity;BMP_temperature;BMP_pressure;BME280_temperature;BME280_humidity;BME280_pressure;Samples;Min_cycle;Max_cycle;Signal;HPM_P1;HPM_P2
2021/10/08 00:00:23;;;;;;;26.30;6.78;;;;;;;13.30;76.43;101133.94;5014594;28;20030;-72
2021/10/08 00:02:49;;;;;;;23.50;4.38;;;;;;;13.47;75.58;101168.31;5013818;28;20050;-70
2021/10/08 00:05:14;;;;;;;20.65;3.75;;;;;;;13.48;76.03;101162.28;5014675;28;20104;-70
2021/10/08 00:07:40;;;;;;;11.20;2.80;;;;;;;13.47;75.70;101165.72;5014130;28;20022;-70
2021/10/08 00:10:06;;;;;;;14.15;3.10;;;;;;;13.47;75.77;101160.53;5014300;28;20033;-70
2021/10/08 00:12:32;;;;;;;12.50;2.85;;;;;;;13.32;75.28;101134.00;5014212;28;20061;-70
2021/10/08 00:14:57;;;;;;;14.80;3.05;;;;;;;13.52;75.58;101164.19;5014375;28;20041;-73
2021/10/08 00:17:23;;;;;;;17.27;3.15;;;;;;;13.55;75.32;101161.69;5012803;28;20084;-70
2021/10/08 00:19:49;;;;;;;18.42;4.38;;;;;;;13.55;75.58;101159.09;5014029;28;20083;-70
2021/10/08 00:22:14;;;;;;;11.68;3.75;;;;;;;13.56;75.21;101172.97;5011993;28;20033;-73
2021/10/08 00:24:40;;;;;;;17.45;5.00;;;;;;;13.58;75.58;101168.69;5013781;28;20026;-73
2021/10/08 00:27:05;;;;;;;14.60;3.08;;;;;;;13.50;75.59;101150.25;5013685;28;20026;-71
2021/10/08 00:29:31;;;;;;;18.55;3.65;;;;;;;13.56;75.11;101162.59;5013766;28;20026;-71
2021/10/08 00:31:56;;;;;;;18.13;3.65;;;;;;;13.57;75.13;101154.84;5013719;28;20445;-71
2021/10/08 00:34:22;;;;;;;27.45;6.00;;;;;;;13.48;75.72;101148.44;5013713;28;20072;-71
2021/10/08 00:36:47;;;;;;;16.60;3.83;;;;;;;13.46;75.86;101155.28;5014509;28;20034;-71
2021/10/08 00:39:13;;;;;;;15.20;3.55;;;;;;;13.49;75.89;101145.91;5013290;28;20083;-71
2021/10/08 00:41:38;;;;;;;17.95;3.88;;;;;;;13.55;75.75;101153.91;5013602;28;20060;-71
2021/10/08 00:44:04;;;;;;;15.05;3.40;;;;;;;13.51;75.84;101156.34;5013705;28;20021;-73
2021/10/08 00:46:29;;;;;;;20.08;4.88;;;;;;;13.36;76.30;101149.75;5013570;28;20030;-71
2021/10/08 00:48:55;;;;;;;16.67;3.58;;;;;;;13.40;75.83;101141.25;5013695;28;20101;-71
2021/10/08 00:51:23;;;;;;;13.10;3.20;;;;;;;13.43;75.92;101164.72;5013502;28;20084;-71
2021/10/08 00:53:48;;;;;;;20.25;4.07;;;;;;;13.38;76.55;101147.22;5013143;28;20046;-71
2021/10/08 00:56:17;;;;;;;19.13;4.68;;;;;;;13.49;76.07;101151.09;5013241;28;20045;-71
2021/10/08 00:58:43;;;;;;;18.30;3.75;;;;;;;13.45;75.57;101151.81;5013156;28;20036;-72
2021/10/08 01:01:10;;;;;;;18.05;3.72;;;;;;;13.23;76.33;101113.81;5013399;28;20034;-70
2021/10/08 01:03:37;;;;;;;22.05;4.60;;;;;;;13.27;76.53;101141.59;5013431;28;20044;-70
2021/10/08 01:06:03;;;;;;;14.70;4.10;;;;;;;13.30;76.66;101131.34;5013108;28;20018;-72
2021/10/08 01:08:28;;;;;;;15.00;4.50;;;;;;;13.32;75.86;101136.59;5013104;28;20087;-72
2021/10/08 01:10:56;;;;;;;17.92;4.00;;;;;;;13.42;77.52;101133.53;5013027;28;20053;-70
2021/10/08 01:13:22;;;;;;;21.90;4.50;;;;;;;13.41;77.83;101144.75;5012998;28;20025;-70
2021/10/08 01:15:47;;;;;;;12.45;2.30;;;;;;;13.40;78.14;101146.44;5013018;28;20017;-71
2021/10/08 01:18:13;;;;;;;15.73;4.05;;;;;;;13.30;78.08;101133.94;5012137;28;20018;-72
2021/10/08 01:20:39;;;;;;;15.63;4.07;;;;;;;13.29;79.77;101152.06;4994300;28;20060;-72
2021/10/08 01:23:04;;;;;;;16.48;3.85;;;;;;;13.29;79.17;101145.16;5012964;28;20030;-71
2021/10/08 01:25:35;;;;;;;8.90;3.22;;;;;;;13.24;78.14;101118.16;5012809;28;20022;-72
2021/10/08 01:28:02;;;;;;;13.98;3.42;;;;;;;13.04;79.85;101094.97;5012713;28;20030;-71
2021/10/08 01:30:28;;;;;;;16.67;2.95;;;;;;;13.23;79.70;101121.59;5012977;28;20053;-71
2021/10/08 01:32:53;;;;;;;13.50;2.85;;;;;;;13.31;78.96;101132.22;5012995;28;20055;-72
2021/10/08 01:35:21;;;;;;;19.15;4.00;;;;;;;13.27;79.69;101126.94;5012805;28;20030;-75
2021/10/08 01:37:47;;;;;;;11.93;2.65;;;;;;;13.25;79.81;101126.00;5011435;28;20113;-72
2021/10/08 01:40:13;;;;;;;12.77;3.22;;;;;;;13.03;80.23;101108.75;5012838;28;20104;-74
2021/10/08 01:42:39;;;;;;;22.15;3.50;;;;;;;13.13;80.55;101116.91;5012699;28;20649;-71
2021/10/08 01:45:06;;;;;;;14.15;2.72;;;;;;;13.07;80.78;101105.47;5012965;28;20084;-73
2021/10/08 01:47:32;;;;;;;11.00;2.50;;;;;;;13.18;80.63;101128.31;5012648;28;20022;-74
2021/10/08 01:49:58;;;;;;;14.95;2.30;;;;;;;13.13;81.00;101119.50;5012600;28;20104;-71
2021/10/08 01:52:23;;;;;;;23.38;3.95;;;;;;;13.08;81.37;101120.22;5012412;28;20029;-73
2021/10/08 01:54:49;;;;;;;22.20;3.85;;;;;;;12.98;82.22;101105.13;5012108;28;20042;-72
2021/10/08 01:57:15;;;;;;;16.15;3.03;;;;;;;13.05;81.85;101117.50;5012682;28;20490;-72
2021/10/08 01:59:41;;;;;;;15.90;2.95;;;;;;;12.90;82.67;101112.63;5012540;28;20026;-72
2021/10/08 02:02:06;;;;;;;16.92;3.53;;;;;;;12.93;82.54;101112.75;5011986;28;20076;-74
2021/10/08 02:04:32;;;;;;;12.38;2.83;;;;;;;12.94;82.36;101109.31;5027595;28;20068;-72
2021/10/08 02:06:58;;;;;;;12.10;3.30;;;;;;;12.80;83.46;101094.97;5012156;28;20117;-71
2021/10/08 02:09:24;;;;;;;14.30;3.50;;;;;;;12.56;83.54;101080.25;5012134;28;20059;-74
2021/10/08 02:11:49;;;;;;;18.10;4.45;;;;;;;12.84;83.53;101114.97;5011767;28;20377;-71
2021/10/08 02:14:15;;;;;;;15.52;3.17;;;;;;;12.89;82.88;101121.22;5011033;28;20037;-72
2021/10/08 02:16:40;;;;;;;10.18;2.50;;;;;;;12.90;82.80;101109.16;5012055;28;20101;-76
2021/10/08 02:19:06;;;;;;;18.48;3.45;;;;;;;12.97;83.65;101123.22;5010823;28;20030;-73
2021/10/08 02:21:34;;;;;;;22.08;3.03;;;;;;;13.02;82.59;101121.66;5011833;28;20037;-72
2021/10/08 02:23:59;;;;;;;12.85;2.55;;;;;;;12.89;82.66;101100.47;5027094;28;20022;-73
2021/10/08 02:26:25;;;;;;;12.98;3.15;;;;;;;12.90;83.34;101111.75;5011964;28;20483;-71
2021/10/08 02:28:51;;;;;;;23.98;3.17;;;;;;;12.78;83.87;101099.19;5011722;28;20079;-72
2021/10/08 02:31:16;;;;;;;16.75;3.78;;;;;;;12.86;84.27;101104.66;5011284;28;20112;-71
2021/10/08 02:33:43;;;;;;;19.98;4.03;;;;;;;12.91;84.12;101118.66;5012068;28;20022;-72
2021/10/08 02:36:09;;;;;;;20.08;3.90;;;;;;;12.90;83.71;101107.44;5011997;28;20030;-73
2021/10/08 02:38:36;;;;;;;12.48;4.32;;;;;;;12.87;82.95;101103.84;5011751;28;20022;-72
2021/10/08 02:41:02;;;;;;;12.00;3.95;;;;;;;12.84;83.35;101104.59;5011879;28;20044;-72
2021/10/08 02:43:28;;;;;;;26.73;4.55;;;;;;;12.70;84.21;101085.09;5011887;28;20468;-77
2021/10/08 02:45:53;;;;;;;19.25;3.78;;;;;;;12.72;83.38;101083.41;5011338;28;20014;-72
2021/10/08 02:48:19;;;;;;;27.30;5.30;;;;;;;12.71;84.49;101092.91;5011582;28;20084;-72
2021/10/08 02:50:45;;;;;;;17.00;4.43;;;;;;;12.83;83.94;101099.38;5011372;28;20017;-72
2021/10/08 02:53:11;;;;;;;19.15;4.03;;;;;;;12.83;83.63;101095.06;5011776;28;20030;-72
2021/10/08 02:55:37;;;;;;;19.95;4.72;;;;;;;12.73;84.06;101088.66;5011218;28;20053;-72
2021/10/08 02:58:02;;;;;;;23.90;4.07;;;;;;;12.55;84.21;101052.56;5011713;28;20088;-79
2021/10/08 03:00:28;;;;;;;14.73;3.53;;;;;;;12.77;83.64;101094.81;5011543;28;20533;-73
2021/10/08 03:02:53;;;;;;;21.60;4.00;;;;;;;12.67;84.07;101062.50;5011608;28;20038;-72
2021/10/08 03:05:19;;;;;;;18.02;4.25;;;;;;;12.59;83.75;101049.25;5010016;28;20030;-73
2021/10/08 03:07:44;;;;;;;22.38;4.47;;;;;;;12.76;84.10;101075.81;5026500;28;20037;-73
2021/10/08 03:10:14;;;;;;;16.58;4.25;;;;;;;12.63;83.35;101058.03;5011510;28;20022;-73
2021/10/08 03:12:40;;;;;;;23.15;4.30;;;;;;;12.78;83.76;101074.19;5011119;28;20104;-73
2021/10/08 03:15:07;;;;;;;18.05;4.50;;;;;;;12.74;83.55;101089.53;5011564;28;20117;-74
2021/10/08 03:17:32;;;;;;;17.92;4.03;;;;;;;12.73;83.23;101078.28;5010176;28;20038;-73
2021/10/08 03:19:58;;;;;;;26.30;4.88;;;;;;;12.62;83.16;101064.03;5026647;28;20104;-73
2021/10/08 03:22:23;;;;;;;24.38;4.85;;;;;;;12.72;83.33;101081.72;5011024;28;20030;-73
2021/10/08 03:24:49;;;;;;;20.35;4.68;;;;;;;12.41;82.85;101053.75;5011515;28;20036;-72
2021/10/08 03:27:14;;;;;;;16.15;3.90;;;;;;;12.58;83.57;101083.75;5011245;28;20448;-73
2021/10/08 03:29:40;;;;;;;25.75;5.22;;;;;;;12.62;83.95;101085.66;5011528;28;20088;-73
2021/10/08 03:32:06;;;;;;;17.00;4.38;;;;;;;12.61;83.96;101085.56;5011101;28;20022;-74
2021/10/08 03:34:31;;;;;;;15.27;4.07;;;;;;;12.62;83.01;101075.31;5011194;28;20112;-73
2021/10/08 03:37:06;;;;;;;19.42;4.07;;;;;;;12.52;84.08;101083.53;5006489;28;20101;-76
2021/10/08 03:39:36;;;;;;;23.08;5.00;;;;;;;12.38;83.54;101062.28;5008960;28;20037;-71
2021/10/08 03:42:02;;;;;;;;;;;;;;;12.53;82.67;101089.59;5013146;28;20021;-72
2021/10/08 03:44:32;;;;;;;18.45;4.15;;;;;;;12.50;83.04;101086.88;5014809;28;19902;-72
2021/10/08 03:46:58;;;;;;;19.10;3.72;;;;;;;12.48;82.40;101070.41;5014536;28;20054;-73
2021/10/08 03:49:24;;;;;;;13.65;4.60;;;;;;;12.41;83.13;101072.75;4995578;28;20492;-72
2021/10/08 03:51:51;;;;;;;19.70;4.07;;;;;;;12.50;83.30;101071.34;4994859;28;20033;-73
2021/10/08 03:54:18;;;;;;;19.20;4.15;;;;;;;12.57;82.70;101091.47;4977569;28;20062;-73
2021/10/08 03:56:44;;;;;;;16.40;3.72;;;;;;;12.57;82.80;101091.47;4994934;28;20428;-76
2021/10/08 03:59:10;;;;;;;24.38;4.68;;;;;;;12.51;82.92;101086.06;4994974;28;20034;-71
2021/10/08 04:01:36;;;;;;;14.70;3.78;;;;;;;12.55;83.01;101088.84;4994806;28;20076;-73
2021/10/08 04:04:04;;;;;;;12.52;3.25;;;;;;;12.57;83.05;101084.59;4994455;28;20026;-71
2021/10/08 04:06:32;;;;;;;15.25;3.70;;;;;;;12.53;82.66;101092.19;4994688;28;20101;-73
2021/10/08 04:08:58;;;;;;;18.50;4.28;;;;;;;12.46;82.24;101086.78;4994864;28;20022;-72
2021/10/08 04:11:23;;;;;;;20.52;3.70;;;;;;;12.39;82.55;101087.34;4994391;28;20196;-74
2021/10/08 04:13:49;;;;;;;15.68;3.95;;;;;;;12.47;82.44;101098.00;4994398;28;20411;-72
2021/10/08 04:16:14;;;;;;;15.48;3.78;;;;;;;12.57;81.95;101113.09;5001228;28;20079;-72
2021/10/08 04:18:40;;;;;;;18.98;4.45;;;;;;;12.50;82.16;101116.25;5014393;28;20507;-74
2021/10/08 04:21:05;;;;;;;15.40;3.42;;;;;;;12.51;81.91;101123.22;5014130;28;20075;-75
2021/10/08 04:23:31;;;;;;;16.60;3.67;;;;;;;12.56;81.86;101123.38;5014056;28;20018;-75
2021/10/08 04:25:56;;;;;;;17.98;4.55;;;;;;;12.40;82.27;101109.84;5012206;28;20025;-76
2021/10/08 04:28:22;;;;;;;22.58;4.57;;;;;;;12.37;82.07;101096.75;5013825;28;20428;-76
2021/10/08 04:30:47;;;;;;;21.10;4.90;;;;;;;12.39;81.72;101095.13;5013658;28;20558;-75
2021/10/08 04:33:18;;;;;;;17.65;4.43;;;;;;;12.53;81.77;101128.44;5013871;28;20026;-75
2021/10/08 04:35:44;;;;;;;19.63;4.28;;;;;;;12.44;81.90;101116.03;5014225;28;20021;-75
2021/10/08 04:38:10;;;;;;;17.17;4.10;;;;;;;12.53;81.94;101141.41;5005256;28;20749;-74
2021/10/08 04:40:36;;;;;;;17.20;4.65;;;;;;;12.51;81.54;101140.44;4999471;28;20101;-76
2021/10/08 04:43:02;;;;;;;18.88;5.00;;;;;;;12.25;81.86;101107.50;5010833;28;20026;-74
2021/10/08 04:45:27;;;;;;;22.80;4.97;;;;;;;12.44;81.51;101127.25;5013328;28;20084;-74
2021/10/08 04:47:53;;;;;;;24.90;5.25;;;;;;;12.46;81.07;101140.25;5013155;28;20532;-71
2021/10/08 04:50:19;;;;;;;19.08;6.13;;;;;;;12.49;81.83;101130.03;5012951;28;20018;-71
2021/10/08 04:52:44;;;;;;;21.48;6.20;;;;;;;12.50;81.58;101129.22;5012657;28;20108;-70
2021/10/08 04:55:10;;;;;;;22.33;5.90;;;;;;;12.28;81.78;101097.25;5012820;28;20092;-71
2021/10/08 04:57:36;;;;;;;19.35;4.55;;;;;;;12.32;81.76;101119.00;5011893;28;20384;-73
2021/10/08 05:00:04;;;;;;;16.88;5.50;;;;;;;12.21;82.61;101104.72;5013494;28;20045;-70
2021/10/08 05:02:31;;;;;;;24.08;7.63;;;;;;;12.31;83.22;101132.75;4995569;28;20050;-74
2021/10/08 05:04:57;;;;;;;15.40;5.85;;;;;;;12.36;82.23;101133.84;4994706;28;20026;-74
2021/10/08 05:07:22;;;;;;;20.45;4.47;;;;;;;12.28;82.02;101130.94;4990709;28;20077;-74
2021/10/08 05:09:48;;;;;;;31.65;7.13;;;;;;;12.10;82.47;101105.19;5008136;28;21003;-72
2021/10/08 05:12:14;;;;;;;26.35;7.03;;;;;;;12.29;82.80;101142.19;5002894;28;20030;-70
2021/10/08 05:14:40;;;;;;;14.95;5.78;;;;;;;12.25;83.08;101150.63;5003429;28;20030;-70
2021/10/08 05:17:05;;;;;;;25.17;7.25;;;;;;;12.28;83.47;101150.75;5001786;28;20105;-72
2021/10/08 05:19:31;;;;;;;24.48;6.20;;;;;;;12.27;83.70;101149.00;5005712;28;20038;-72
2021/10/08 05:21:56;;;;;;;18.05;5.93;;;;;;;12.07;83.72;101130.94;5006389;28;20101;-73
2021/10/08 05:24:22;;;;;;;19.63;6.95;;;;;;;12.19;83.10;101150.41;5002511;28;20022;-70
2021/10/08 05:26:48;;;;;;;31.13;8.75;;;;;;;12.13;83.38;101161.38;5001914;28;20025;-73
2021/10/08 05:29:14;;;;;;;27.15;7.53;;;;;;;12.05;83.37;101154.97;5003572;28;20026;-70
2021/10/08 05:31:40;;;;;;;22.60;7.18;;;;;;;12.05;83.31;101157.56;5001800;28;20025;-73
2021/10/08 05:34:05;;;;;;;19.08;6.70;;;;;;;12.14;83.05;101168.31;5002380;28;20045;-70
2021/10/08 05:36:31;;;;;;;18.35;6.70;;;;;;;12.09;82.77;101154.31;5009986;28;20129;-72
2021/10/08 05:38:57;;;;;;;14.88;6.13;;;;;;;12.00;82.64;101140.97;5009967;28;20049;-73
2021/10/08 05:41:23;;;;;;;22.77;8.93;;;;;;;11.98;83.54;101136.59;5010049;28;20069;-72
2021/10/08 05:43:48;;;;;;;23.25;6.82;;;;;;;11.91;83.48;101126.81;5009847;28;20044;-73
2021/10/08 05:46:14;;;;;;;27.67;6.40;;;;;;;11.90;83.79;101116.38;5009561;28;20026;-73
2021/10/08 05:48:39;;;;;;;18.85;6.38;;;;;;;12.03;83.88;101131.63;5009468;28;20052;-73
2021/10/08 05:51:05;;;;;;;18.88;6.30;;;;;;;11.91;83.81;101128.50;5009833;28;20022;-73
2021/10/08 05:53:30;;;;;;;27.65;8.25;;;;;;;11.93;83.72;101137.22;5009416;28;20053;-74
2021/10/08 05:55:56;;;;;;;21.63;6.57;;;;;;;11.92;83.80;101161.31;5009301;28;20104;-71
2021/10/08 05:58:21;;;;;;;27.00;7.93;;;;;;;11.85;83.87;101130.81;5009849;28;20037;-72
2021/10/08 06:00:47;;;;;;;24.55;7.40;;;;;;;11.96;83.59;101165.81;5009746;28;20066;-72
2021/10/08 06:03:12;;;;;;;27.17;9.25;;;;;;;11.92;84.16;101176.84;5009652;28;20499;-72
2021/10/08 06:05:39;;;;;;;26.92;9.45;;;;;;;11.97;83.59;101176.28;5006829;28;20018;-72
2021/10/08 06:08:08;;;;;;;29.35;9.02;;;;;;;11.92;83.72;101161.31;5009126;28;20030;-73
2021/10/08 06:10:34;;;;;;;24.30;7.95;;;;;;;12.02;83.61;101165.22;5009520;28;20459;-71
2021/10/08 06:12:59;;;;;;;21.63;6.45;;;;;;;12.01;83.62;101164.31;5002891;28;20046;-71
2021/10/08 06:15:25;;;;;;;24.55;8.25;;;;;;;11.96;84.30;101158.97;5002659;28;20025;-75
2021/10/08 06:17:51;;;;;;;17.30;6.40;;;;;;;11.95;84.39;101154.56;5002612;28;20022;-72
2021/10/08 06:20:16;;;;;;;16.02;5.80;;;;;;;11.61;83.91;101114.34;5001703;28;20100;-76
2021/10/08 06:22:45;;;;;;;18.75;6.40;;;;;;;11.87;84.65;101147.31;5001172;28;20045;-74
2021/10/08 06:25:11;;;;;;;21.17;7.00;;;;;;;12.07;84.47;101150.75;5002438;28;20018;-72
2021/10/08 06:27:37;;;;;;;20.90;6.68;;;;;;;12.07;84.59;101151.63;5001826;28;20441;-73
2021/10/08 06:30:04;;;;;;;23.42;7.20;;;;;;;12.11;83.25;101150.97;5002676;28;20026;-73
2021/10/08 06:32:29;;;;;;;32.03;8.55;;;;;;;11.78;83.14;101109.00;5001394;28;20532;-72
2021/10/08 06:34:55;;;;;;;31.17;8.77;;;;;;;11.85;83.57;101130.81;5001940;28;20110;-73
2021/10/08 06:37:20;;;;;;;20.85;7.30;;;;;;;12.12;83.63;101160.50;5000954;28;20026;-74
2021/10/08 06:39:46;;;;;;;32.00;10.00;;;;;;;12.06;82.16;101168.00;5002368;28;20014;-71
2021/10/08 06:42:11;;;;;;;26.60;7.43;;;;;;;12.04;81.85;101172.22;5001650;28;20088;-71
2021/10/08 06:44:37;;;;;;;27.40;7.70;;;;;;;12.06;83.12;101175.78;5000949;28;20026;-71
2021/10/08 06:47:02;;;;;;;30.65;7.75;;;;;;;12.10;82.81;101184.53;5002384;28;20049;-74
2021/10/08 06:49:28;;;;;;;21.67;7.72;;;;;;;12.16;81.92;101174.44;5000846;28;20019;-71
2021/10/08 06:51:53;;;;;;;30.05;8.15;;;;;;;12.23;82.13;101170.41;5001161;28;20475;-72
2021/10/08 06:54:19;;;;;;;29.83;9.10;;;;;;;12.22;81.50;101182.44;5002727;28;20412;-71
2021/10/08 06:56:44;;;;;;;35.45;9.98;;;;;;;12.13;80.87;101177.78;5000110;28;20046;-74
2021/10/08 06:59:10;;;;;;;26.90;8.90;;;;;;;12.21;81.30;101180.72;5001952;28;20057;-69
2021/10/08 07:01:35;;;;;;;22.15;7.90;;;;;;;12.11;81.18;101169.06;5001782;28;20018;-73
2021/10/08 07:04:02;;;;;;;28.60;7.88;;;;;;;12.19;80.84;101178.88;5000355;28;20058;-71
2021/10/08 07:06:29;;;;;;;23.73;8.07;;;;;;;12.12;81.16;101164.78;5002061;28;20100;-73
2021/10/08 07:08:56;;;;;;;24.90;7.40;;;;;;;12.22;81.24;101184.16;5001512;28;20034;-71
2021/10/08 07:11:21;;;;;;;34.65;8.95;;;;;;;12.20;80.62;101171.16;5000577;28;20035;-73
2021/10/08 07:13:50;;;;;;;23.77;7.50;;;;;;;12.26;80.56;101165.34;5001093;28;20084;-73
2021/10/08 07:16:15;;;;;;;32.85;8.05;;;;;;;12.19;80.25;101163.34;5002728;28;20427;-70
2021/10/08 07:18:44;;;;;;;21.48;7.18;;;;;;;12.25;79.62;101161.88;5003978;28;20096;-71
2021/10/08 07:21:10;;;;;;;24.13;8.32;;;;;;;12.22;79.62;101166.03;5004256;28;20018;-72
2021/10/08 07:23:38;;;;;;;32.75;7.97;;;;;;;12.26;78.81;101179.19;4970463;28;20037;-72
2021/10/08 07:26:04;;;;;;;28.58;9.05;;;;;;;12.22;79.36;101173.81;5007305;28;20022;-71
2021/10/08 07:28:29;;;;;;;32.15;9.50;;;;;;;12.13;79.28;101163.97;5005489;28;20063;-71
2021/10/08 07:30:55;;;;;;;31.30;8.57;;;;;;;12.27;80.15;101167.13;5004604;28;20017;-70
2021/10/08 07:33:20;;;;;;;37.85;8.98;;;;;;;12.09;79.84;101141.38;5008659;28;20034;-73
2021/10/08 07:35:46;;;;;;;27.40;7.63;;;;;;;12.26;79.16;101161.06;5008974;28;20081;-72
2021/10/08 07:38:11;;;;;;;26.48;7.57;;;;;;;12.04;79.12;101128.22;5005668;28;20080;-70
2021/10/08 07:40:37;;;;;;;30.33;8.75;;;;;;;12.18;79.86;101157.25;5004636;28;20027;-70
2021/10/08 07:43:02;;;;;;;29.80;7.95;;;;;;;12.19;79.96;101153.00;5004222;28;20502;-74
2021/10/08 07:45:28;;;;;;;27.65;7.93;;;;;;;12.14;80.32;101158.84;5005447;28;20052;-69
2021/10/08 07:47:54;;;;;;;24.60;8.15;;;;;;;12.06;80.06;101142.13;5003985;28;20062;-70
2021/10/08 07:50:19;;;;;;;28.77;8.85;;;;;;;12.20;80.37;101163.41;5004425;28;20022;-70
2021/10/08 07:52:45;;;;;;;31.02;8.05;;;;;;;12.17;80.33;101165.84;5005503;28;20048;-71
2021/10/08 07:55:11;;;;;;;34.90;8.93;;;;;;;12.14;80.29;101157.97;5003076;28;20022;-70
2021/10/08 07:57:38;;;;;;;26.42;7.30;;;;;;;12.17;80.40;101152.91;5004905;28;20018;-71
2021/10/08 08:00:06;;;;;;;29.27;7.97;;;;;;;12.22;80.08;101161.75;5005121;28;20022;-70
2021/10/08 08:02:31;;;;;;;35.70;8.65;;;;;;;12.04;80.68;101122.19;5003288;28;20440;-70
2021/10/08 08:04:57;;;;;;;22.10;6.80;;;;;;;12.34;79.96;101157.91;5001871;28;20077;-69
2021/10/08 08:07:23;;;;;;;31.17;8.07;;;;;;;12.21;79.46;101140.97;4994696;28;20101;-70
2021/10/08 08:09:49;;;;;;;20.65;6.75;;;;;;;12.26;79.36;101148.13;4995026;28;20454;-70
2021/10/08 08:12:14;;;;;;;29.50;7.93;;;;;;;12.31;79.06;101153.47;4994816;28;20025;-71
2021/10/08 08:14:40;;;;;;;25.55;6.82;;;;;;;12.32;79.84;101155.25;5011442;28;20416;-72
2021/10/08 08:17:06;;;;;;;36.40;8.20;;;;;;;12.34;78.81;101152.72;5013796;28;20021;-71
2021/10/08 08:19:31;;;;;;;25.98;7.65;;;;;;;12.38;79.95;101127.00;5014569;28;20022;-71
2021/10/08 08:21:57;;;;;;;31.58;8.43;;;;;;;12.53;79.82;101139.69;5014204;28;20060;-70
2021/10/08 08:24:22;;;;;;;22.67;7.65;;;;;;;12.36;79.95;101113.13;5014102;28;20021;-70
2021/10/08 08:26:48;;;;;;;26.55;7.20;;;;;;;12.54;79.54;101149.22;5013815;28;20457;-70
2021/10/08 08:29:13;;;;;;;32.05;8.30;;;;;;;12.52;79.95;101148.28;5013410;28;20072;-70
2021/10/08 08:31:41;;;;;;;22.45;6.85;;;;;;;12.49;78.80;101152.47;5014135;28;20464;-70
2021/10/08 08:34:07;;;;;;;33.63;8.70;;;;;;;12.52;78.96;101150.84;5014252;28;20064;-70
2021/10/08 08:36:33;;;;;;;29.42;7.43;;;;;;;12.56;78.42;101138.91;5014151;28;20049;-73
2021/10/08 08:39:03;;;;;;;22.70;6.68;;;;;;;12.61;78.18;101145.16;5013910;28;20046;-73
2021/10/08 08:41:29;;;;;;;37.72;8.57;;;;;;;12.63;78.67;101138.34;5013863;28;20048;-70
2021/10/08 08:43:54;;;;;;;33.17;6.50;;;;;;;12.55;78.20;101109.56;4995257;28;20033;-70
2021/10/08 08:46:20;;;;;;;29.90;7.88;;;;;;;12.73;78.49;101135.28;5013860;28;20033;-70
2021/10/08 08:48:45;;;;;;;35.00;9.05;;;;;;;12.81;78.20;101140.78;5013832;28;20088;-74
2021/10/08 08:51:11;;;;;;;32.60;7.53;;;;;;;12.87;78.52;101141.03;5013711;28;20033;-71
2021/10/08 08:53:36;;;;;;;35.03;8.13;;;;;;;12.78;78.88;101115.63;5013812;28;20065;-70
2021/10/08 08:56:02;;;;;;;40.20;8.63;;;;;;;12.88;80.07;101134.13;5013602;28;20046;-71
2021/10/08 08:58:28;;;;;;;38.58;8.68;;;;;;;12.88;80.45;101131.53;5013339;28;20099;-73
2021/10/08 09:00:58;;;;;;;29.45;7.00;;;;;;;12.90;79.63;101137.66;5013794;28;20525;-71
2021/10/08 09:03:24;;;;;;;32.60;8.02;;;;;;;12.87;78.96;101142.72;5013473;28;20029;-71
2021/10/08 09:05:49;;;;;;;24.67;6.55;;;;;;;12.62;80.03;101100.31;5013060;28;20049;-71
2021/10/08 09:08:15;;;;;;;32.45;7.25;;;;;;;12.79;79.17;101139.81;5013384;28;20033;-70
2021/10/08 09:10:44;;;;;;;24.00;7.55;;;;;;;12.78;80.71;101146.72;5013466;28;20044;-70
2021/10/08 09:13:09;;;;;;;26.40;6.63;;;;;;;12.55;80.75;101103.50;4963000;28;20472;-71
2021/10/08 09:15:48;;;;;;;29.55;9.70;;;;;;;12.63;81.56;101117.63;5013449;28;20022;-70
2021/10/08 09:18:16;;;;;;;25.23;7.60;;;;;;;12.75;81.40;101138.81;5013072;28;20508;-73
2021/10/08 09:21:03;;;;;;;34.97;9.55;;;;;;;12.79;82.85;101138.09;5013412;28;20105;-71
2021/10/08 09:23:46;;;;;;;39.58;9.35;;;;;;;12.69;81.66;101124.75;5013055;28;20388;-70
2021/10/08 09:26:25;;;;;;;34.58;11.20;;;;;;;12.72;82.45;101138.72;5013243;28;20026;-71
2021/10/08 09:29:02;;;;;;;33.50;9.60;;;;;;;12.64;83.75;101110.75;5012902;28;20132;-72
2021/10/08 09:31:41;;;;;;;44.47;9.50;;;;;;;12.57;82.55;101099.25;5013260;28;20460;-71
2021/10/08 09:34:14;;;;;;;34.80;9.18;;;;;;;12.77;82.84;101132.00;5003928;28;20026;-72
2021/10/08 09:36:42;;;;;;;40.10;9.90;;;;;;;12.89;82.02;101144.53;4994718;28;20049;-74
2021/10/08 09:39:20;;;;;;;36.55;9.32;;;;;;;12.75;82.83;101105.13;5012951;28;20088;-73
2021/10/08 09:41:54;;;;;;;34.08;9.13;;;;;;;12.84;82.10;101121.88;5012980;28;20018;-72
2021/10/08 09:44:19;;;;;;;33.08;8.48;;;;;;;12.87;81.30;101127.16;5012491;28;20468;-71
2021/10/08 09:46:45;;;;;;;34.80;9.70;;;;;;;12.93;82.79;101133.47;5012708;28;20025;-74
2021/10/08 09:49:20;;;;;;;29.33;8.18;;;;;;;12.87;82.66;101133.25;5012777;28;20030;-73
2021/10/08 09:51:46;;;;;;;23.05;6.45;;;;;;;12.65;82.27;101087.50;5009155;28;20022;-76
2021/10/08 09:54:11;;;;;;;23.25;6.72;;;;;;;12.70;82.39;101098.91;5012161;28;20038;-71
2021/10/08 09:56:40;;;;;;;42.35;9.98;;;;;;;12.87;82.33;101133.25;5012233;28;20034;-74
2021/10/08 09:59:13;;;;;;;31.40;8.63;;;;;;;12.88;82.37;101128.94;5012351;28;20022;-73
2021/10/08 10:01:40;;;;;;;34.63;8.38;;;;;;;12.99;82.42;101142.31;5011832;28;20030;-73
2021/10/08 10:04:11;;;;;;;31.15;8.55;;;;;;;12.75;82.17;101105.13;5012253;28;20101;-72
2021/10/08 10:06:39;;;;;;;40.83;8.30;;;;;;;12.82;83.14;101118.34;5012272;28;20018;-72
2021/10/08 10:09:07;;;;;;;27.98;7.55;;;;;;;12.84;82.49;101133.09;5013686;28;20112;-72
2021/10/08 10:11:34;;;;;;;37.90;8.63;;;;;;;12.71;82.15;101113.63;4999191;28;20084;-72
2021/10/08 10:14:00;;;;;;;32.42;8.02;;;;;;;12.82;82.63;101139.06;5010344;28;20026;-73
2021/10/08 10:16:28;;;;;;;31.98;7.70;;;;;;;12.75;83.29;101105.13;5011851;28;20022;-72
2021/10/08 10:18:56;;;;;;;27.40;6.70;;;;;;;12.95;82.30;101125.75;5011815;28;20042;-73
2021/10/08 10:21:26;;;;;;;31.27;7.13;;;;;;;13.00;82.61;101124.22;5012071;28;20032;-73
2021/10/08 10:24:02;;;;;;;25.02;6.95;;;;;;;12.94;81.63;101113.63;5011972;28;20374;-72
2021/10/08 10:26:29;;;;;;;20.52;6.97;;;;;;;12.86;81.18;101095.19;5011467;28;20083;-73
2021/10/08 10:28:55;;;;;;;34.47;8.45;;;;;;;12.90;80.79;101116.94;5011461;28;20043;-72
2021/10/08 10:31:23;;;;;;;33.45;8.13;;;;;;;13.01;80.99;101126.00;5004449;28;20025;-74
2021/10/08 10:33:49;;;;;;;27.77;8.63;;;;;;;13.02;81.02;101132.94;4992111;28;20029;-72
2021/10/08 10:36:24;;;;;;;33.13;7.78;;;;;;;12.84;80.90;101090.78;4992311;28;20025;-72
2021/10/08 10:38:50;;;;;;;26.50;7.82;;;;;;;13.05;80.39;101135.63;4991284;28;20032;-71
2021/10/08 10:41:18;;;;;;;32.35;8.20;;;;;;;12.98;80.71;101143.13;4994490;28;20105;-71
2021/10/08 10:43:55;;;;;;;35.20;8.68;;;;;;;13.03;80.66;101136.41;4994237;28;20026;-71
2021/10/08 10:49:28;;;;;;;32.97;7.85;;;;;;;12.97;80.26;101134.44;4994019;28;20027;-73
2021/10/08 10:51:59;;;;;;;23.73;6.30;;;;;;;12.74;81.60;101093.00;4993164;28;20034;-71
2021/10/08 10:54:33;;;;;;;32.45;6.15;;;;;;;12.96;80.83;101127.53;5012817;28;20029;-72
2021/10/08 10:57:02;;;;;;;23.20;7.25;;;;;;;12.95;81.71;101130.94;5015547;28;20124;-74
2021/10/08 10:59:30;;;;;;;14.53;5.30;;;;;;;12.67;81.18;101093.59;5003027;28;20042;-71
2021/10/08 11:02:08;;;;;;;16.30;6.70;;;;;;;12.72;81.69;101102.44;5002265;28;20026;-72
2021/10/08 11:04:37;;;;;;;24.70;6.28;;;;;;;12.87;81.62;101137.53;4996829;28;20010;-71
2021/10/08 11:07:03;;;;;;;27.73;7.45;;;;;;;12.89;81.98;101133.28;4995289;28;20022;-71
2021/10/08 11:09:29;;;;;;;17.27;5.63;;;;;;;12.82;82.60;101126.09;4997356;28;20034;-69
2021/10/08 11:12:30;;;;;;;22.98;5.35;;;;;;;12.80;81.85;101110.50;4997229;28;20419;-71
2021/10/08 11:15:17;;;;;;;17.10;5.20;;;;;;;12.74;81.76;101120.63;5003775;28;20476;-71
2021/10/08 11:17:53;;;;;;;18.88;5.80;;;;;;;12.69;82.22;101119.59;5004636;28;20080;-71